createdAt,value
2023-05-12T00:00:39.063Z,66.13
2023-05-12T00:03:11.581Z,65.88
2023-05-12T00:05:41.790Z,65.77
2023-05-12T00:08:12.056Z,65.52
2023-05-12T00:10:42.293Z,65.96
2023-05-12T00:13:15.254Z,65.86
2023-05-12T00:15:45.529Z,65.79
2023-05-12T00:18:16.705Z,65.19
2023-05-12T00:20:50.268Z,65.26
2023-05-12T00:23:20.579Z,65.18
2023-05-12T00:25:50.881Z,64.42
2023-05-12T00:28:24.015Z,64.47
2023-05-12T00:30:55.366Z,64.63
2023-05-12T00:33:25.561Z,64.41
2023-05-12T00:35:55.730Z,64.66
2023-05-12T00:38:25.945Z,64.75
2023-05-12T00:40:56.307Z,64.71
2023-05-12T00:43:29.048Z,64.70
2023-05-12T00:46:00.215Z,64.74
2023-05-12T00:48:31.813Z,64.47
2023-05-12T00:51:04.239Z,64.46
2023-05-12T00:53:47.801Z,64.32
2023-05-12T00:56:20.372Z,64.36
2023-05-12T00:58:53.163Z,64.49
2023-05-12T01:01:23.988Z,64.04
2023-05-12T01:03:57.205Z,64.12
2023-05-12T01:06:32.920Z,64.24
2023-05-12T01:09:03.811Z,64.20
2023-05-12T01:11:34.228Z,63.94
2023-05-12T01:14:07.334Z,63.77
2023-05-12T01:16:43.151Z,64.02
2023-05-12T01:19:26.840Z,64.37
2023-05-12T01:21:57.282Z,64.01
2023-05-12T01:24:30.520Z,63.74
2023-05-12T01:27:04.098Z,63.63
2023-05-12T01:29:35.459Z,63.86
2023-05-12T01:32:06.249Z,63.95
2023-05-12T01:34:37.668Z,63.79
2023-05-12T01:37:10.708Z,63.95
2023-05-12T01:39:41.516Z,64.07
2023-05-12T01:42:18.311Z,63.54
2023-05-12T01:44:48.682Z,63.33
2023-05-12T01:47:18.946Z,63.29
2023-05-12T01:49:56.396Z,63.39
2023-05-12T01:52:26.683Z,63.16
2023-05-12T01:54:57.425Z,63.14
2023-05-12T01:57:33.796Z,63.60
2023-05-12T02:00:05.376Z,62.97
2023-05-12T02:02:43.581Z,63.62
2023-05-12T02:05:18.046Z,63.37
2023-05-12T02:07:51.711Z,63.12
2023-05-12T02:10:22.677Z,62.89
2023-05-12T02:12:56.019Z,62.96
2023-05-12T02:15:27.603Z,63.53
2023-05-12T02:17:59.622Z,63.21
2023-05-12T02:20:30.624Z,63.41
2023-05-12T02:23:01.224Z,63.33
2023-05-12T02:25:33.481Z,63.45
2023-05-12T02:28:09.156Z,63.08
2023-05-12T02:30:39.342Z,63.40
2023-05-12T02:33:09.602Z,63.94
2023-05-12T02:35:39.875Z,64.57
2023-05-12T02:38:10.473Z,64.54
2023-05-12T02:40:41.463Z,64.66
2023-05-12T02:43:16.746Z,64.72
2023-05-12T02:45:47.142Z,64.38
2023-05-12T02:48:17.665Z,65.02
2023-05-12T02:50:47.879Z,64.58
2023-05-12T02:53:18.858Z,64.97
2023-05-12T02:55:49.091Z,65.18
2023-05-12T02:58:25.400Z,64.59
2023-05-12T03:01:06.637Z,64.54
2023-05-12T03:03:41.099Z,64.68
2023-05-12T03:06:12.572Z,64.94
2023-05-12T03:08:42.866Z,64.71
2023-05-12T03:11:13.256Z,64.72
2023-05-12T03:13:46.705Z,65.26
2023-05-12T03:16:19.904Z,64.51
2023-05-12T03:18:51.259Z,64.91
2023-05-12T03:21:21.636Z,64.70
2023-05-12T03:23:53.007Z,64.53
2023-05-12T03:26:23.199Z,64.74
2023-05-12T03:28:56.263Z,64.65
2023-05-12T03:31:27.262Z,64.66
2023-05-12T03:33:57.503Z,64.63
2023-05-12T03:36:27.924Z,63.75
2023-05-12T03:39:02.559Z,63.93
2023-05-12T03:41:32.977Z,63.70
2023-05-12T03:44:05.874Z,64.32
2023-05-12T03:46:36.166Z,64.08
2023-05-12T03:49:06.790Z,63.61
2023-05-12T03:51:37.039Z,63.94
2023-05-12T03:54:08.008Z,64.23
2023-05-12T03:56:38.335Z,64.26
2023-05-12T03:59:13.325Z,64.77
2023-05-12T04:01:43.855Z,65.04
2023-05-12T04:04:14.247Z,64.42
2023-05-12T04:06:44.550Z,64.70
2023-05-12T04:09:15.111Z,64.57
2023-05-12T04:11:45.367Z,64.42
2023-05-12T04:14:18.527Z,64.57
2023-05-12T04:16:48.911Z,64.67
2023-05-12T04:19:19.149Z,64.79
2023-05-12T04:21:49.975Z,64.48
2023-05-12T04:24:20.177Z,64.66
2023-05-12T04:26:50.613Z,64.56
2023-05-12T04:29:23.503Z,64.37
2023-05-12T04:31:54.398Z,64.38
2023-05-12T04:34:26.455Z,64.81
2023-05-12T04:36:56.902Z,64.81
2023-05-12T04:39:27.044Z,64.69
2023-05-12T04:41:57.838Z,65.16
2023-05-12T04:44:31.092Z,65.10
2023-05-12T04:47:01.410Z,65.09
2023-05-12T04:49:33.052Z,64.80
2023-05-12T04:52:04.264Z,64.75
2023-05-12T04:54:35.250Z,64.69
2023-05-12T04:57:05.445Z,64.70
2023-05-12T04:59:41.902Z,64.93
2023-05-12T05:02:12.371Z,65.33
2023-05-12T05:04:42.757Z,65.28
2023-05-12T05:07:13.156Z,65.59
2023-05-12T05:09:43.425Z,65.49
2023-05-12T05:12:13.771Z,65.52
2023-05-12T05:14:49.232Z,65.42
2023-05-12T05:17:21.012Z,65.22
2023-05-12T05:19:58.426Z,65.64
2023-05-12T05:22:33.250Z,65.20
2023-05-12T05:25:04.122Z,65.62
2023-05-12T05:27:36.806Z,65.24
2023-05-12T05:30:11.153Z,65.73
2023-05-12T05:32:45.815Z,65.84
2023-05-12T05:35:17.030Z,66.04
2023-05-12T05:37:51.146Z,66.13
2023-05-12T05:40:22.266Z,65.95
2023-05-12T05:42:52.280Z,66.00
2023-05-12T05:45:27.015Z,65.83
2023-05-12T05:47:58.762Z,65.11
2023-05-12T05:50:32.114Z,64.94
2023-05-12T05:53:02.397Z,65.27
2023-05-12T05:55:32.837Z,65.68
2023-05-12T05:58:03.719Z,65.56
2023-05-12T06:00:46.157Z,64.89
2023-05-12T06:03:19.793Z,64.98
2023-05-12T06:05:50.809Z,65.19
2023-05-12T06:08:21.036Z,64.85
2023-05-12T06:10:53.503Z,66.00
2023-05-12T06:13:24.074Z,64.76
2023-05-12T06:15:56.794Z,65.36
2023-05-12T06:18:29.337Z,65.47
2023-05-12T06:21:00.390Z,65.42
2023-05-12T06:23:30.859Z,65.53
2023-05-12T06:26:01.119Z,65.81
2023-05-12T06:28:31.760Z,65.65
2023-05-12T06:31:04.805Z,65.33
2023-05-12T06:33:35.140Z,65.73
2023-05-12T06:36:05.444Z,65.57
2023-05-12T06:38:36.462Z,65.77
2023-05-12T06:41:06.896Z,66.65
2023-05-12T06:43:37.205Z,65.89
2023-05-12T06:46:12.010Z,65.70
2023-05-12T06:48:42.299Z,66.32
2023-05-12T06:51:13.454Z,66.49
2023-05-12T06:53:43.978Z,67.74
2023-05-12T06:56:17.259Z,68.59
2023-05-12T06:58:48.323Z,70.11
2023-05-12T07:01:21.379Z,72.68
2023-05-12T07:03:52.670Z,73.93
2023-05-12T07:06:22.898Z,75.58
2023-05-12T07:08:53.602Z,77.14
2023-05-12T07:11:23.997Z,78.00
2023-05-12T07:13:54.536Z,80.22
2023-05-12T07:16:30.238Z,80.56
2023-05-12T07:19:00.542Z,80.81
2023-05-12T07:21:31.001Z,81.80
2023-05-12T07:24:01.327Z,82.31
2023-05-12T07:26:31.854Z,83.38
2023-05-12T07:29:04.273Z,84.09
2023-05-12T07:31:38.871Z,84.32
2023-05-12T07:34:09.154Z,85.40
2023-05-12T07:36:39.398Z,85.88
2023-05-12T07:39:09.803Z,86.32
2023-05-12T07:41:40.008Z,85.54
2023-05-12T07:44:10.334Z,85.55
2023-05-12T07:46:43.253Z,86.48
2023-05-12T07:49:13.498Z,86.25
2023-05-12T07:51:43.704Z,86.67
2023-05-12T07:54:14.387Z,87.38
2023-05-12T07:56:44.657Z,87.98
2023-05-12T07:59:14.857Z,88.04
2023-05-12T08:01:47.728Z,87.77
2023-05-12T08:04:18.087Z,88.89
2023-05-12T08:06:48.364Z,89.99
2023-05-12T08:09:18.677Z,90.03
2023-05-12T08:11:51.609Z,90.70
2023-05-12T08:14:23.051Z,91.28
2023-05-12T08:16:58.207Z,91.03
2023-05-12T08:19:28.466Z,92.48
2023-05-12T08:21:58.677Z,91.94
2023-05-12T08:24:29.255Z,90.16
2023-05-12T08:26:59.666Z,92.06
2023-05-12T08:29:30.058Z,90.12
2023-05-12T08:32:05.417Z,90.81
2023-05-12T08:34:36.357Z,90.81
2023-05-12T08:37:09.767Z,92.48
2023-05-12T08:39:40.252Z,92.30
2023-05-12T08:42:21.438Z,92.01
2023-05-12T08:44:52.393Z,91.32
2023-05-12T08:47:27.232Z,92.17
2023-05-12T08:50:03.497Z,89.75
2023-05-12T08:52:36.767Z,91.33
2023-05-12T08:55:08.386Z,91.86
2023-05-12T08:57:40.097Z,91.25
2023-05-12T09:00:11.970Z,91.41
2023-05-12T09:02:53.173Z,91.20
2023-05-12T09:05:24.827Z,91.85
2023-05-12T09:07:57.859Z,92.39
2023-05-12T09:10:34.542Z,93.27
2023-05-12T09:13:07.763Z,90.95
2023-05-12T09:15:42.852Z,92.32
2023-05-12T09:18:18.484Z,92.35
2023-05-12T09:20:48.747Z,91.43
2023-05-12T09:23:20.408Z,91.64
2023-05-12T09:26:01.470Z,88.69
2023-05-12T09:28:39.890Z,87.87
2023-05-12T09:31:20.617Z,87.41
2023-05-12T09:33:56.766Z,85.78
2023-05-12T09:36:28.726Z,85.55
2023-05-12T09:39:04.949Z,85.31
2023-05-12T09:41:38.048Z,83.34
2023-05-12T09:44:09.429Z,81.59
2023-05-12T09:46:40.093Z,79.41
2023-05-12T09:49:13.345Z,79.38
2023-05-12T09:51:44.259Z,79.55
2023-05-12T09:54:14.566Z,77.44
2023-05-12T09:56:45.144Z,78.71
2023-05-12T09:59:17.074Z,74.89
2023-05-12T10:01:47.992Z,75.71
2023-05-12T10:04:21.229Z,75.50
2023-05-12T10:06:52.374Z,76.72
2023-05-12T10:09:23.783Z,74.06
2023-05-12T10:11:57.375Z,74.74
2023-05-12T10:14:27.900Z,75.41
2023-05-12T10:16:59.058Z,71.94
2023-05-12T10:19:33.228Z,74.76
2023-05-12T10:22:05.227Z,68.53
2023-05-12T10:24:37.485Z,68.75
2023-05-12T10:27:09.049Z,68.87
2023-05-12T10:29:42.038Z,69.13
2023-05-12T10:32:12.756Z,68.52
2023-05-12T10:34:46.060Z,68.64
2023-05-12T10:37:17.055Z,66.90
2023-05-12T10:39:50.574Z,66.43
2023-05-12T10:42:26.144Z,65.70
2023-05-12T10:44:59.661Z,69.26
2023-05-12T10:47:41.954Z,67.75
2023-05-12T10:50:16.818Z,66.98
2023-05-12T10:52:57.235Z,65.27
2023-05-12T10:55:36.242Z,67.24
2023-05-12T10:58:13.230Z,65.13
2023-05-12T11:00:48.783Z,65.91
2023-05-12T11:03:22.151Z,65.48
2023-05-12T11:06:05.595Z,64.96
2023-05-12T11:08:37.894Z,64.43
2023-05-12T11:11:09.035Z,65.76
2023-05-12T11:13:39.042Z,66.27
2023-05-12T11:16:09.840Z,67.34
2023-05-12T11:18:40.059Z,65.04
2023-05-12T11:21:15.941Z,65.08
2023-05-12T11:23:46.161Z,66.65
2023-05-12T11:26:21.313Z,65.33
2023-05-12T11:28:54.277Z,63.17
2023-05-12T11:31:25.726Z,63.60
2023-05-12T11:34:12.727Z,64.90
2023-05-12T11:36:47.614Z,64.51
2023-05-12T11:39:21.082Z,65.42
2023-05-12T11:41:59.360Z,66.22
2023-05-12T11:44:36.130Z,62.84
2023-05-12T11:47:16.941Z,65.90
2023-05-12T11:49:52.338Z,62.21
2023-05-12T11:52:26.751Z,61.30
2023-05-12T11:55:01.121Z,61.39
2023-05-12T11:57:32.667Z,61.97
2023-05-12T12:00:07.219Z,60.38
2023-05-12T12:02:40.128Z,60.64
2023-05-12T12:05:21.425Z,61.05
2023-05-12T12:07:54.624Z,59.19
2023-05-12T12:10:27.135Z,58.80
2023-05-12T12:12:57.407Z,58.96
2023-05-12T12:15:27.645Z,61.38
2023-05-12T12:17:57.861Z,60.10
2023-05-12T12:20:28.442Z,59.02
2023-05-12T12:23:01.346Z,58.16
2023-05-12T12:25:34.519Z,58.33
2023-05-12T12:28:04.662Z,57.50
2023-05-12T12:30:34.980Z,57.14
2023-05-12T12:33:10.323Z,56.97
2023-05-12T12:35:40.794Z,57.84
2023-05-12T12:38:13.775Z,58.38
2023-05-12T12:40:43.987Z,57.79
2023-05-12T12:43:14.191Z,58.13
2023-05-12T12:45:44.378Z,58.36
2023-05-12T12:48:14.916Z,58.14
2023-05-12T12:50:45.328Z,58.48
2023-05-12T12:53:20.584Z,59.19
2023-05-12T12:55:52.084Z,60.31
2023-05-12T12:58:22.935Z,60.31
2023-05-12T13:00:53.731Z,59.47
2023-05-12T13:03:24.780Z,58.64
2023-05-12T13:05:54.703Z,58.98
2023-05-12T13:08:27.785Z,58.34
2023-05-12T13:10:58.526Z,58.12
2023-05-12T13:13:28.799Z,58.88
2023-05-12T13:15:58.924Z,59.19
2023-05-12T13:18:29.189Z,59.31
2023-05-12T13:20:59.551Z,59.15
2023-05-12T13:23:33.296Z,59.82
2023-05-12T13:26:06.036Z,60.23
2023-05-12T13:28:36.556Z,59.45
2023-05-12T13:31:07.042Z,60.48
2023-05-12T13:33:37.421Z,61.17
2023-05-12T13:36:08.151Z,61.39
2023-05-12T13:38:41.330Z,62.35
2023-05-12T13:41:13.653Z,62.99
2023-05-12T13:43:43.972Z,63.67
2023-05-12T13:46:14.217Z,63.07
2023-05-12T13:48:44.410Z,63.24
2023-05-12T13:51:14.731Z,64.50
2023-05-12T13:53:51.531Z,64.29
2023-05-12T13:56:22.180Z,64.28
2023-05-12T13:58:52.632Z,65.36
2023-05-12T14:01:23.240Z,65.29
2023-05-12T14:03:53.725Z,64.95
2023-05-12T14:06:24.060Z,64.65
2023-05-12T14:08:59.752Z,64.82
2023-05-12T14:11:31.821Z,64.43
2023-05-12T14:14:03.684Z,64.70
2023-05-12T14:16:33.998Z,65.02
2023-05-12T14:19:04.347Z,64.13
2023-05-12T14:21:37.528Z,63.94
2023-05-12T14:24:11.628Z,63.75
2023-05-12T14:26:41.823Z,63.30
2023-05-12T14:29:12.129Z,63.27
2023-05-12T14:31:42.468Z,63.95
2023-05-12T14:34:14.883Z,64.59
2023-05-12T14:36:46.462Z,66.47
2023-05-12T14:39:19.617Z,66.40
2023-05-12T14:41:50.259Z,67.99
2023-05-12T14:44:20.479Z,69.29
2023-05-12T14:46:50.973Z,70.57
2023-05-12T14:49:23.708Z,70.34
2023-05-12T14:51:54.151Z,70.82
2023-05-12T14:54:27.217Z,71.73
2023-05-12T14:56:57.428Z,72.52
2023-05-12T14:59:27.694Z,71.54
2023-05-12T15:01:57.929Z,72.04
2023-05-12T15:04:31.026Z,71.76
2023-05-12T15:07:01.254Z,72.73
2023-05-12T15:09:34.014Z,72.93
2023-05-12T15:12:04.261Z,72.64
2023-05-12T15:14:35.706Z,72.31
2023-05-12T15:17:08.560Z,72.97
2023-05-12T15:19:40.158Z,72.30
2023-05-12T15:22:10.396Z,72.96
2023-05-12T15:24:46.338Z,73.72
2023-05-12T15:27:16.687Z,73.46
2023-05-12T15:29:49.186Z,72.34
2023-05-12T15:32:19.528Z,71.84
2023-05-12T15:34:49.810Z,71.36
2023-05-12T15:37:20.054Z,70.94
2023-05-12T15:39:54.119Z,69.74
2023-05-12T15:42:32.346Z,69.95
2023-05-12T15:45:03.278Z,68.94
2023-05-12T15:47:34.348Z,67.87
2023-05-12T15:50:05.053Z,67.74
2023-05-12T15:52:35.566Z,67.57
2023-05-12T15:55:13.525Z,66.49
2023-05-12T15:57:44.063Z,66.35
2023-05-12T16:00:16.185Z,66.04
2023-05-12T16:02:47.159Z,66.30
2023-05-12T16:05:20.698Z,65.58
2023-05-12T16:07:51.214Z,65.39
2023-05-12T16:10:27.208Z,66.43
2023-05-12T16:12:57.516Z,66.42
2023-05-12T16:15:27.726Z,66.87
2023-05-12T16:18:00.248Z,66.15
2023-05-12T16:20:30.514Z,66.44
2023-05-12T16:23:00.729Z,65.40
2023-05-12T16:25:33.572Z,65.56
2023-05-12T16:28:04.003Z,64.71
2023-05-12T16:30:37.800Z,64.98
2023-05-12T16:33:09.198Z,64.79
2023-05-12T16:35:39.789Z,63.07
2023-05-12T16:38:13.721Z,63.43
2023-05-12T16:40:46.549Z,63.38
2023-05-12T16:43:18.991Z,63.89
2023-05-12T16:45:49.430Z,63.67
2023-05-12T16:48:19.781Z,63.79
2023-05-12T16:50:50.006Z,64.79
2023-05-12T16:53:20.174Z,65.09
2023-05-12T16:55:52.952Z,65.16
2023-05-12T16:58:23.548Z,65.45
2023-05-12T17:00:56.642Z,65.19
2023-05-12T17:03:27.003Z,65.91
2023-05-12T17:05:57.407Z,66.47
2023-05-12T17:08:27.721Z,66.32
2023-05-12T17:11:01.016Z,66.71
2023-05-12T17:13:34.044Z,66.30
2023-05-12T17:16:04.651Z,66.47
2023-05-12T17:19:13.615Z,66.84
2023-05-12T17:21:25.667Z,66.51
2023-05-12T17:23:55.999Z,66.64
2023-05-12T17:26:29.957Z,66.99
2023-05-12T17:29:03.747Z,67.13
2023-05-12T17:31:34.126Z,67.27
2023-05-12T17:34:04.367Z,67.07
2023-05-12T17:36:34.539Z,67.49
2023-05-12T17:39:05.384Z,67.56
2023-05-12T17:41:41.312Z,67.00
2023-05-12T17:44:11.824Z,67.21
2023-05-12T17:46:42.103Z,67.39
2023-05-12T17:49:12.492Z,67.96
2023-05-12T17:51:43.326Z,68.29
2023-05-12T17:54:13.769Z,67.99
2023-05-12T17:56:48.400Z,68.03
2023-05-12T17:59:18.619Z,67.81
2023-05-12T18:01:49.023Z,68.23
2023-05-12T18:04:19.680Z,68.35
2023-05-12T18:06:51.372Z,68.73
2023-05-12T18:09:26.111Z,69.07
2023-05-12T18:11:59.659Z,69.37
2023-05-12T18:14:30.861Z,69.46
2023-05-12T18:17:01.159Z,70.00
2023-05-12T18:19:31.697Z,69.96
2023-05-12T18:22:02.320Z,70.15
2023-05-12T18:24:34.848Z,70.75
2023-05-12T18:27:08.934Z,70.65
2023-05-12T18:29:39.128Z,70.97
2023-05-12T18:32:09.358Z,71.33
2023-05-12T18:34:41.972Z,71.31
2023-05-12T18:37:17.742Z,71.10
2023-05-12T18:39:48.012Z,71.34
2023-05-12T18:42:21.023Z,71.92
2023-05-12T18:44:56.165Z,72.05
2023-05-12T18:47:27.694Z,71.89
2023-05-12T18:49:58.069Z,72.19
2023-05-12T18:52:28.287Z,72.26
2023-05-12T18:54:58.727Z,72.15
2023-05-12T18:57:31.594Z,72.35
2023-05-12T19:00:04.005Z,72.18
2023-05-12T19:02:34.875Z,72.40
2023-05-12T19:05:04.918Z,72.24
2023-05-12T19:07:35.508Z,72.19
2023-05-12T19:10:05.716Z,72.12
2023-05-12T19:12:38.665Z,72.62
2023-05-12T19:15:12.571Z,72.86
2023-05-12T19:17:42.988Z,72.69
2023-05-12T19:20:14.451Z,72.63
2023-05-12T19:22:45.494Z,72.70
2023-05-12T19:25:18.084Z,72.88
2023-05-12T19:27:51.174Z,73.63
2023-05-12T19:30:22.318Z,73.50
2023-05-12T19:32:52.900Z,73.70
2023-05-12T19:35:23.652Z,73.89
2023-05-12T19:37:54.617Z,73.86
2023-05-12T19:40:24.830Z,74.44
2023-05-12T19:43:03.530Z,74.84
2023-05-12T19:45:34.226Z,75.05
2023-05-12T19:48:04.782Z,75.11
2023-05-12T19:50:35.550Z,75.38
2023-05-12T19:53:05.884Z,75.53
2023-05-12T19:55:37.528Z,76.37
2023-05-12T19:58:11.550Z,76.43
2023-05-12T20:00:41.859Z,76.77
2023-05-12T20:03:12.453Z,77.12
2023-05-12T20:05:42.756Z,77.12
2023-05-12T20:08:12.994Z,77.00
2023-05-12T20:10:43.307Z,76.55
2023-05-12T20:13:17.376Z,76.32
2023-05-12T20:15:47.802Z,75.74
2023-05-12T20:18:18.124Z,75.85
2023-05-12T20:20:48.378Z,75.84
2023-05-12T20:23:19.186Z,75.97
2023-05-12T20:25:51.997Z,76.06
2023-05-12T20:28:25.403Z,75.74
2023-05-12T20:30:55.645Z,75.98
2023-05-12T20:33:25.927Z,75.86
2023-05-12T20:35:56.179Z,76.19
2023-05-12T20:38:27.276Z,76.66
2023-05-12T20:40:57.145Z,76.60
2023-05-12T20:43:30.211Z,77.09
2023-05-12T20:46:00.670Z,76.80
2023-05-12T20:48:31.089Z,77.00
2023-05-12T20:51:02.167Z,77.10
2023-05-12T20:53:33.796Z,77.07
2023-05-12T20:56:06.730Z,77.03
2023-05-12T20:58:40.603Z,77.52
2023-05-12T21:01:10.962Z,77.88
2023-05-12T21:03:42.005Z,78.39
2023-05-12T21:06:13.093Z,78.75
2023-05-12T21:08:45.701Z,78.48
2023-05-12T21:11:19.829Z,79.05
2023-05-12T21:13:52.927Z,79.61
2023-05-12T21:16:23.264Z,80.18
2023-05-12T21:18:53.552Z,80.79
2023-05-12T21:21:25.028Z,81.51
2023-05-12T21:23:57.775Z,82.17
2023-05-12T21:26:29.906Z,82.87
2023-05-12T21:29:03.785Z,83.80
2023-05-12T21:31:34.139Z,84.67
2023-05-12T21:34:06.548Z,85.26
2023-05-12T21:36:36.778Z,86.38
2023-05-12T21:39:07.624Z,87.35
2023-05-12T21:41:38.674Z,87.57
2023-05-12T21:44:11.562Z,88.42
2023-05-12T21:46:42.859Z,88.91
2023-05-12T21:49:13.198Z,89.04
2023-05-12T21:51:43.532Z,89.58
2023-05-12T21:54:13.752Z,90.12
2023-05-12T21:56:43.882Z,89.08
2023-05-12T21:59:17.287Z,89.27
2023-05-12T22:01:47.633Z,90.12
2023-05-12T22:04:17.906Z,90.40
2023-05-12T22:06:48.184Z,90.24
2023-05-12T22:09:18.701Z,90.19
2023-05-12T22:11:48.893Z,89.99
2023-05-12T22:14:21.940Z,90.47
2023-05-12T22:16:52.133Z,90.13
2023-05-12T22:19:23.124Z,90.55
2023-05-12T22:21:57.720Z,90.52
2023-05-12T22:24:27.911Z,89.83
2023-05-12T22:26:58.282Z,89.73
2023-05-12T22:29:39.511Z,89.96
2023-05-12T22:32:09.697Z,89.49
2023-05-12T22:34:39.893Z,89.99
2023-05-12T22:37:10.062Z,90.22
2023-05-12T22:39:40.195Z,89.92
2023-05-12T22:42:10.737Z,89.54
2023-05-12T22:44:46.565Z,89.46
2023-05-12T22:47:17.780Z,88.87
2023-05-12T22:49:48.126Z,89.18
2023-05-12T22:52:18.379Z,88.15
2023-05-12T22:54:48.582Z,88.83
2023-05-12T22:57:18.901Z,88.45
2023-05-12T22:59:53.999Z,88.47
2023-05-12T23:02:24.333Z,88.46
2023-05-12T23:04:54.596Z,88.24
2023-05-12T23:07:26.581Z,87.99
2023-05-12T23:09:57.347Z,88.22
2023-05-12T23:12:27.582Z,88.15
2023-05-12T23:15:00.370Z,87.51
2023-05-12T23:17:30.799Z,88.04
2023-05-12T23:20:01.084Z,87.77
2023-05-12T23:22:31.296Z,87.79
2023-05-12T23:25:01.488Z,88.42
2023-05-12T23:27:31.711Z,87.87
2023-05-12T23:30:05.655Z,88.18
2023-05-12T23:32:36.334Z,88.49
2023-05-12T23:35:07.046Z,88.48
2023-05-12T23:37:37.291Z,88.22
2023-05-12T23:40:08.940Z,88.22
2023-05-12T23:42:39.190Z,88.34
2023-05-12T23:45:16.140Z,88.83
2023-05-12T23:47:46.304Z,89.45
2023-05-12T23:50:16.712Z,89.56
2023-05-12T23:52:46.898Z,89.46
2023-05-12T23:55:17.550Z,90.03
2023-05-12T23:57:47.797Z,90.34
